Time;durP1;ratioP1;P1;durP2;ratioP2;P2;SDS_P1;SDS_P2;PMS_P1;PMS_P2;Temp;Humidity;BMP_temperature;BMP_pressure;BME280_temperature;BME280_humidity;BME280_pressure;Samples;Min_cycle;Max_cycle;Signal;HPM_P1;HPM_P2
2024/01/28 00:01:36;;;;;;;0.90;0.90;;;;;;;;;;5057081;28;20176;-84
2024/01/28 00:04:02;;;;;;;0.90;0.90;;;;;;;;;;5056826;28;20162;-83
2024/01/28 00:06:28;;;;;;;0.80;0.80;;;;;;;;;;5057179;28;20208;-83
2024/01/28 00:08:54;;;;;;;0.80;0.80;;;;;;;;;;5057177;28;20183;-83
2024/01/28 00:11:20;;;;;;;0.80;0.80;;;;;;;;;;5041737;28;20200;-83
2024/01/28 00:13:46;;;;;;;0.80;0.80;;;;;;;;;;5034851;28;20204;-84
2024/01/28 00:16:18;;;;;;;0.83;0.83;;;;;;;;;;5044860;28;20199;-82
2024/01/28 00:18:45;;;;;;;0.80;0.80;;;;;;;;;;5055492;28;20175;-84
2024/01/28 00:21:13;;;;;;;0.80;0.80;;;;;;;;;;5054227;28;20179;-83
2024/01/28 00:23:39;;;;;;;0.90;0.90;;;;;;;;;;5054606;28;20183;-84
2024/01/28 00:26:07;;;;;;;0.80;0.80;;;;;;;;;;5044123;28;20172;-84
2024/01/28 00:28:33;;;;;;;0.83;0.83;;;;;;;;;;5043409;28;20175;-84
2024/01/28 00:30:59;;;;;;;0.90;0.90;;;;;;;;;;5044326;28;20168;-85
2024/01/28 00:33:24;;;;;;;0.80;0.80;;;;;;;;;;5042854;28;20208;-84
2024/01/28 00:35:50;;;;;;;0.80;0.80;;;;;;;;;;5039777;28;20176;-84
2024/01/28 00:38:16;;;;;;;0.90;0.90;;;;;;;;;;5032329;28;20183;-83
2024/01/28 00:40:43;;;;;;;0.90;0.90;;;;;;;;;;5044931;28;20188;-85
2024/01/28 00:43:09;;;;;;;0.90;0.90;;;;;;;;;;5044949;28;20267;-84
2024/01/28 00:45:35;;;;;;;0.83;0.83;;;;;;;;;;5045371;28;20172;-85
2024/01/28 00:48:01;;;;;;;0.90;0.90;;;;;;;;;;5046369;28;20195;-83
2024/01/28 00:50:26;;;;;;;1.00;1.00;;;;;;;;;;5057539;28;20235;-83
2024/01/28 00:52:52;;;;;;;1.00;1.00;;;;;;;;;;5056835;28;20171;-82
2024/01/28 00:55:18;;;;;;;1.00;1.00;;;;;;;;;;5048874;28;20191;-84
2024/01/28 00:57:44;;;;;;;0.80;0.80;;;;;;;;;;5040207;28;20199;-84
2024/01/28 01:00:11;;;;;;;1.00;1.00;;;;;;;;;;5038643;28;20653;-84
2024/01/28 01:02:39;;;;;;;0.90;0.90;;;;;;;;;;5027149;28;20528;-84
2024/01/28 01:05:05;;;;;;;0.90;0.90;;;;;;;;;;5020800;28;20561;-86
2024/01/28 01:07:31;;;;;;;0.80;0.80;;;;;;;;;;5018542;28;20571;-85
2024/01/28 01:09:57;;;;;;;0.90;0.90;;;;;;;;;;5020447;28;20188;-84
2024/01/28 01:12:23;;;;;;;0.90;0.90;;;;;;;;;;5016071;28;20180;-84
2024/01/28 01:14:49;;;;;;;1.10;1.10;;;;;;;;;;5017165;28;20219;-84
2024/01/28 01:17:15;;;;;;;0.80;0.80;;;;;;;;;;5033706;28;20215;-85
2024/01/28 01:19:41;;;;;;;0.90;0.90;;;;;;;;;;5038772;28;20235;-84
2024/01/28 01:22:07;;;;;;;0.80;0.80;;;;;;;;;;5041847;28;20182;-84
2024/01/28 01:24:34;;;;;;;0.80;0.80;;;;;;;;;;5043365;28;20184;-84
2024/01/28 01:27:00;;;;;;;0.90;0.90;;;;;;;;;;5041384;28;20206;-84
2024/01/28 01:29:25;;;;;;;0.80;0.80;;;;;;;;;;5038159;28;20662;-84
2024/01/28 01:31:53;;;;;;;1.00;1.00;;;;;;;;;;5022999;28;20204;-85
2024/01/28 01:34:19;;;;;;;0.90;0.90;;;;;;;;;;5022849;28;20267;-84
2024/01/28 01:36:45;;;;;;;0.93;0.93;;;;;;;;;;5022603;28;20736;-85
2024/01/28 01:39:12;;;;;;;0.90;0.90;;;;;;;;;;5022126;28;20184;-84
2024/01/28 01:41:38;;;;;;;0.90;0.90;;;;;;;;;;5023189;28;20180;-84
2024/01/28 01:44:04;;;;;;;0.90;0.90;;;;;;;;;;5021208;28;20537;-84
2024/01/28 01:46:31;;;;;;;1.00;1.00;;;;;;;;;;5022853;28;20224;-84
2024/01/28 01:48:58;;;;;;;0.80;0.80;;;;;;;;;;5024765;28;20181;-85
2024/01/28 01:51:24;;;;;;;0.90;0.90;;;;;;;;;;5024423;28;20235;-84
2024/01/28 01:53:51;;;;;;;0.90;0.90;;;;;;;;;;5023617;28;20211;-85
2024/01/28 01:56:17;;;;;;;0.80;0.80;;;;;;;;;;5022391;28;20211;-84
2024/01/28 01:58:46;;;;;;;0.83;0.83;;;;;;;;;;5023148;28;20173;-85
2024/01/28 02:01:12;;;;;;;0.90;0.90;;;;;;;;;;5023574;28;20242;-84
2024/01/28 02:03:39;;;;;;;0.93;0.93;;;;;;;;;;5034399;28;20210;-85
2024/01/28 02:06:06;;;;;;;0.90;0.90;;;;;;;;;;5040753;28;20172;-84
2024/01/28 02:08:32;;;;;;;0.87;0.87;;;;;;;;;;5042166;28;20263;-84
2024/01/28 02:11:02;;;;;;;0.90;0.90;;;;;;;;;;5039398;28;20172;-86
2024/01/28 02:13:28;;;;;;;1.03;1.03;;;;;;;;;;5044363;28;20207;-83
2024/01/28 02:15:54;;;;;;;0.80;0.80;;;;;;;;;;5026079;28;20193;-84
2024/01/28 02:18:20;;;;;;;0.90;0.90;;;;;;;;;;5026042;28;20178;-84
2024/01/28 02:20:46;;;;;;;0.90;0.90;;;;;;;;;;5029308;28;20179;-84
2024/01/28 02:23:16;;;;;;;0.90;0.90;;;;;;;;;;5047786;28;20240;-85
2024/01/28 02:25:42;;;;;;;0.80;0.80;;;;;;;;;;5053436;28;20164;-86
2024/01/28 02:28:09;;;;;;;0.90;0.90;;;;;;;;;;5050083;28;20191;-85
2024/01/28 02:30:35;;;;;;;0.90;0.90;;;;;;;;;;5044048;28;20191;-85
2024/01/28 02:33:01;;;;;;;0.80;0.80;;;;;;;;;;5044742;28;20200;-85
2024/01/28 02:35:27;;;;;;;0.90;0.90;;;;;;;;;;5043159;28;20172;-85
2024/01/28 02:37:53;;;;;;;0.97;0.97;;;;;;;;;;5027235;28;20283;-85
2024/01/28 02:40:22;;;;;;;0.90;0.90;;;;;;;;;;5024072;28;20224;-85
2024/01/28 02:42:48;;;;;;;0.90;0.90;;;;;;;;;;5024420;28;20184;-85
2024/01/28 02:45:14;;;;;;;0.90;0.90;;;;;;;;;;5023074;28;20403;-85
2024/01/28 02:47:41;;;;;;;0.90;0.90;;;;;;;;;;5022403;28;20197;-84
2024/01/28 02:50:07;;;;;;;0.87;0.87;;;;;;;;;;5021432;28;20188;-85
2024/01/28 02:52:33;;;;;;;1.00;1.00;;;;;;;;;;5019830;28;20219;-85
2024/01/28 02:54:59;;;;;;;0.90;0.90;;;;;;;;;;5020803;28;20220;-85
2024/01/28 02:57:25;;;;;;;1.00;1.00;;;;;;;;;;5019599;28;20200;-86
2024/01/28 02:59:51;;;;;;;0.80;0.80;;;;;;;;;;5021380;28;20263;-86
2024/01/28 03:02:18;;;;;;;1.00;1.00;;;;;;;;;;5021533;28;20247;-86
2024/01/28 03:04:44;;;;;;;0.80;0.80;;;;;;;;;;5019644;28;20650;-84
2024/01/28 03:07:12;;;;;;;0.80;0.80;;;;;;;;;;5018528;28;20196;-84
2024/01/28 03:09:38;;;;;;;0.97;0.97;;;;;;;;;;5020193;28;20303;-84
2024/01/28 03:12:04;;;;;;;0.93;0.93;;;;;;;;;;5020625;28;20192;-84
2024/01/28 03:14:30;;;;;;;0.90;0.90;;;;;;;;;;5019220;28;20204;-84
2024/01/28 03:16:56;;;;;;;0.80;0.80;;;;;;;;;;5022412;28;20275;-84
2024/01/28 03:19:22;;;;;;;1.00;1.00;;;;;;;;;;5022960;28;20184;-84
2024/01/28 03:21:48;;;;;;;0.97;0.97;;;;;;;;;;5023121;28;20212;-84
2024/01/28 03:24:14;;;;;;;0.90;0.90;;;;;;;;;;5021816;28;20188;-84
2024/01/28 03:26:40;;;;;;;1.00;1.00;;;;;;;;;;5030036;28;20196;-84
2024/01/28 03:29:07;;;;;;;0.90;0.90;;;;;;;;;;5044269;28;20194;-84
2024/01/28 03:31:33;;;;;;;0.90;0.90;;;;;;;;;;5050242;28;20222;-83
2024/01/28 03:33:59;;;;;;;0.90;0.90;;;;;;;;;;5058525;28;20216;-82
2024/01/28 03:36:25;;;;;;;0.93;0.93;;;;;;;;;;5048683;28;20219;-85
2024/01/28 03:38:53;;;;;;;0.90;0.90;;;;;;;;;;5041128;28;20183;-83
2024/01/28 03:41:19;;;;;;;0.90;0.90;;;;;;;;;;5047304;28;20172;-83
2024/01/28 03:43:48;;;;;;;0.90;0.90;;;;;;;;;;5053819;28;20191;-83
2024/01/28 03:46:14;;;;;;;0.87;0.87;;;;;;;;;;5048841;28;20200;-84
2024/01/28 03:48:40;;;;;;;0.90;0.90;;;;;;;;;;5038349;28;20188;-84
2024/01/28 03:51:08;;;;;;;0.90;0.90;;;;;;;;;;5038627;28;20198;-84
2024/01/28 03:53:34;;;;;;;0.90;0.90;;;;;;;;;;5040613;28;20759;-84
2024/01/28 03:56:00;;;;;;;0.97;0.97;;;;;;;;;;5054489;28;20176;-82
2024/01/28 03:58:27;;;;;;;0.90;0.90;;;;;;;;;;5035836;28;20173;-83
2024/01/28 04:00:53;;;;;;;1.00;1.00;;;;;;;;;;5036697;28;20185;-82
2024/01/28 04:03:20;;;;;;;1.00;1.00;;;;;;;;;;5036456;28;20167;-83
2024/01/28 04:05:47;;;;;;;0.90;0.90;;;;;;;;;;5036417;28;20188;-82
2024/01/28 04:08:13;;;;;;;0.83;0.83;;;;;;;;;;5036302;28;20199;-83
2024/01/28 04:10:39;;;;;;;0.90;0.90;;;;;;;;;;5035732;28;20176;-82
2024/01/28 04:13:05;;;;;;;0.90;0.90;;;;;;;;;;5036966;28;20223;-82
2024/01/28 04:15:31;;;;;;;0.83;0.83;;;;;;;;;;5035940;28;20185;-83
2024/01/28 04:17:57;;;;;;;0.90;0.90;;;;;;;;;;5035427;28;20202;-82
2024/01/28 04:20:24;;;;;;;0.80;0.80;;;;;;;;;;5036814;28;20203;-83
2024/01/28 04:22:51;;;;;;;0.90;0.90;;;;;;;;;;5036569;28;20172;-83
2024/01/28 04:25:18;;;;;;;0.90;0.90;;;;;;;;;;5028599;28;20681;-83
2024/01/28 04:27:44;;;;;;;0.90;0.90;;;;;;;;;;5038930;28;20192;-84
2024/01/28 04:30:10;;;;;;;1.00;1.00;;;;;;;;;;5041087;28;20168;-85
2024/01/28 04:32:36;;;;;;;0.90;0.90;;;;;;;;;;5040759;28;20180;-84
2024/01/28 04:35:02;;;;;;;0.80;0.80;;;;;;;;;;5041783;28;20220;-83
2024/01/28 04:37:29;;;;;;;0.90;0.90;;;;;;;;;;5039931;28;20203;-84
2024/01/28 04:39:55;;;;;;;0.87;0.87;;;;;;;;;;5041901;28;20190;-85
2024/01/28 04:42:22;;;;;;;0.87;0.87;;;;;;;;;;5043137;28;20180;-85
2024/01/28 04:44:49;;;;;;;0.90;0.90;;;;;;;;;;5025458;28;20283;-84
2024/01/28 04:47:15;;;;;;;0.90;0.90;;;;;;;;;;5050189;28;20188;-81
2024/01/28 04:49:41;;;;;;;0.90;0.90;;;;;;;;;;5057431;28;20170;-82
2024/01/28 04:52:07;;;;;;;0.90;0.90;;;;;;;;;;5057015;28;20172;-83
2024/01/28 04:54:33;;;;;;;0.90;0.90;;;;;;;;;;5041907;28;20214;-85
2024/01/28 04:57:02;;;;;;;1.00;1.00;;;;;;;;;;5040807;28;20709;-84
2024/01/28 04:59:28;;;;;;;0.90;0.90;;;;;;;;;;5044791;28;20187;-85
2024/01/28 05:01:55;;;;;;;0.93;0.93;;;;;;;;;;5045690;28;20272;-81
2024/01/28 05:04:21;;;;;;;1.00;1.00;;;;;;;;;;5040248;28;20198;-83
2024/01/28 05:06:48;;;;;;;1.00;1.00;;;;;;;;;;5040208;28;20275;-83
2024/01/28 05:09:16;;;;;;;0.90;0.90;;;;;;;;;;5040538;28;20179;-82
2024/01/28 05:11:45;;;;;;;0.90;0.90;;;;;;;;;;5041368;28;20171;-82
2024/01/28 05:14:11;;;;;;;0.90;0.90;;;;;;;;;;5041191;28;20723;-84
2024/01/28 05:16:37;;;;;;;0.87;0.87;;;;;;;;;;5039930;28;20246;-83
2024/01/28 05:19:06;;;;;;;0.90;0.90;;;;;;;;;;5040580;28;20237;-84
2024/01/28 05:21:32;;;;;;;0.90;0.90;;;;;;;;;;5039030;28;20171;-83
2024/01/28 05:23:58;;;;;;;1.00;1.00;;;;;;;;;;5040522;28;20216;-84
2024/01/28 05:26:24;;;;;;;0.97;0.97;;;;;;;;;;5041546;28;20200;-84
2024/01/28 05:28:51;;;;;;;0.93;0.93;;;;;;;;;;5042314;28;20183;-84
2024/01/28 05:31:17;;;;;;;0.97;0.97;;;;;;;;;;5039058;28;20187;-84
2024/01/28 05:33:45;;;;;;;0.90;0.90;;;;;;;;;;5040748;28;20572;-84
2024/01/28 05:36:13;;;;;;;0.90;0.90;;;;;;;;;;5040417;28;20257;-84
2024/01/28 05:38:39;;;;;;;0.80;0.80;;;;;;;;;;5040055;28;20176;-85
2024/01/28 05:41:05;;;;;;;0.87;0.87;;;;;;;;;;5040854;28;20194;-84
2024/01/28 05:43:32;;;;;;;0.93;0.93;;;;;;;;;;5040481;28;20187;-85
2024/01/28 05:45:58;;;;;;;0.80;0.80;;;;;;;;;;5045835;28;20176;-82
2024/01/28 05:48:25;;;;;;;0.97;0.97;;;;;;;;;;5056445;28;20179;-82
2024/01/28 05:50:52;;;;;;;0.90;0.90;;;;;;;;;;5055583;28;20184;-84
2024/01/28 05:53:19;;;;;;;1.00;1.00;;;;;;;;;;5041712;28;20207;-83
2024/01/28 05:55:44;;;;;;;0.80;0.80;;;;;;;;;;5041023;28;20172;-83
2024/01/28 05:58:10;;;;;;;0.80;0.80;;;;;;;;;;5040981;28;20758;-84
2024/01/28 06:00:36;;;;;;;0.90;0.90;;;;;;;;;;5041573;28;20191;-85
2024/01/28 06:03:04;;;;;;;0.90;0.90;;;;;;;;;;5041254;28;20535;-85
2024/01/28 06:05:30;;;;;;;0.90;0.90;;;;;;;;;;5043358;28;20199;-84
2024/01/28 06:07:56;;;;;;;0.90;0.90;;;;;;;;;;5045794;28;20258;-83
2024/01/28 06:10:22;;;;;;;0.90;0.90;;;;;;;;;;5057976;28;20183;-80
2024/01/28 06:12:48;;;;;;;1.00;1.00;;;;;;;;;;5038376;28;20161;-81
2024/01/28 06:15:14;;;;;;;0.80;0.80;;;;;;;;;;5032179;28;20188;-84
2024/01/28 06:17:40;;;;;;;0.90;0.90;;;;;;;;;;5024808;28;20670;-84
2024/01/28 06:20:07;;;;;;;0.90;0.90;;;;;;;;;;5024537;28;20239;-85
2024/01/28 06:22:33;;;;;;;0.90;0.90;;;;;;;;;;5024216;28;20198;-84
2024/01/28 06:24:59;;;;;;;0.87;0.87;;;;;;;;;;5023568;28;20185;-84
2024/01/28 06:27:26;;;;;;;0.93;0.93;;;;;;;;;;5024069;28;20235;-84
2024/01/28 06:29:52;;;;;;;0.90;0.90;;;;;;;;;;5030721;28;20173;-83
2024/01/28 06:32:18;;;;;;;0.90;0.90;;;;;;;;;;5029618;28;20258;-82
2024/01/28 06:34:45;;;;;;;0.90;0.90;;;;;;;;;;5025310;28;20208;-83
2024/01/28 06:37:11;;;;;;;0.90;0.90;;;;;;;;;;5022052;28;20283;-83
2024/01/28 06:39:37;;;;;;;0.90;0.90;;;;;;;;;;5023307;28;20179;-83
2024/01/28 06:42:03;;;;;;;0.90;0.90;;;;;;;;;;5024864;28;20183;-83
2024/01/28 06:44:29;;;;;;;0.80;0.80;;;;;;;;;;5029903;28;20181;-83
2024/01/28 06:46:55;;;;;;;0.80;0.80;;;;;;;;;;5032217;28;20247;-84
2024/01/28 06:49:21;;;;;;;1.00;1.00;;;;;;;;;;5035768;28;20212;-84
2024/01/28 06:51:47;;;;;;;1.00;1.00;;;;;;;;;;5030789;28;20214;-83
2024/01/28 06:54:13;;;;;;;0.90;0.90;;;;;;;;;;5034261;28;20207;-82
2024/01/28 06:56:39;;;;;;;0.90;0.90;;;;;;;;;;5039100;28;20200;-82
2024/01/28 06:59:06;;;;;;;0.90;0.90;;;;;;;;;;5039379;28;20165;-84
2024/01/28 07:01:32;;;;;;;0.90;0.90;;;;;;;;;;5039244;28;20163;-81
2024/01/28 07:03:58;;;;;;;1.00;1.00;;;;;;;;;;5039454;28;20177;-81
2024/01/28 07:06:24;;;;;;;0.90;0.90;;;;;;;;;;5038357;28;20202;-81
2024/01/28 07:08:50;;;;;;;1.00;1.00;;;;;;;;;;5030609;28;20174;-82
2024/01/28 07:11:16;;;;;;;0.87;0.87;;;;;;;;;;5028541;28;20182;-82
2024/01/28 07:13:42;;;;;;;0.90;0.90;;;;;;;;;;5029406;28;20188;-82
2024/01/28 07:16:09;;;;;;;0.90;0.90;;;;;;;;;;5026662;28;20221;-83
2024/01/28 07:18:35;;;;;;;0.90;0.90;;;;;;;;;;5027220;28;20169;-83
2024/01/28 07:21:02;;;;;;;0.90;0.90;;;;;;;;;;5028734;28;20280;-83
2024/01/28 07:23:28;;;;;;;1.00;1.00;;;;;;;;;;5022928;28;20195;-85
2024/01/28 07:25:55;;;;;;;0.90;0.90;;;;;;;;;;5026913;28;20196;-85
2024/01/28 07:28:21;;;;;;;0.90;0.90;;;;;;;;;;5025505;28;20181;-84
2024/01/28 07:30:48;;;;;;;0.90;0.90;;;;;;;;;;5020391;28;20201;-85
2024/01/28 07:33:15;;;;;;;0.90;0.90;;;;;;;;;;5016444;28;20197;-85
2024/01/28 07:35:42;;;;;;;0.80;0.80;;;;;;;;;;5006153;28;20184;-84
2024/01/28 07:38:12;;;;;;;0.90;0.90;;;;;;;;;;5015557;28;20216;-85
2024/01/28 07:40:38;;;;;;;0.70;0.70;;;;;;;;;;5012668;28;20741;-84
2024/01/28 07:43:05;;;;;;;0.90;0.90;;;;;;;;;;5006285;28;20180;-82
2024/01/28 07:45:31;;;;;;;0.67;0.67;;;;;;;;;;5006332;28;20169;-85
2024/01/28 07:47:58;;;;;;;0.70;0.70;;;;;;;;;;5004260;28;20196;-84
2024/01/28 07:50:24;;;;;;;0.70;0.70;;;;;;;;;;5006119;28;20223;-84
2024/01/28 07:52:50;;;;;;;0.60;0.60;;;;;;;;;;5006085;28;20173;-84
2024/01/28 07:55:16;;;;;;;0.60;0.60;;;;;;;;;;5007306;28;20296;-85
2024/01/28 07:57:42;;;;;;;0.50;0.50;;;;;;;;;;5003278;28;20698;-84
2024/01/28 08:00:11;;;;;;;0.50;0.50;;;;;;;;;;5017176;28;20191;-86
2024/01/28 08:02:37;;;;;;;0.50;0.50;;;;;;;;;;5008694;28;20213;-86
2024/01/28 08:05:03;;;;;;;0.50;0.50;;;;;;;;;;5005855;28;20179;-84
2024/01/28 08:07:29;;;;;;;0.50;0.50;;;;;;;;;;5005029;28;20627;-83
2024/01/28 08:09:55;;;;;;;0.30;0.30;;;;;;;;;;5006879;28;20187;-82
2024/01/28 08:12:24;;;;;;;0.50;0.50;;;;;;;;;;5005030;28;20654;-83
2024/01/28 08:14:50;;;;;;;0.37;0.37;;;;;;;;;;5005486;28;20197;-84
2024/01/28 08:17:21;;;;;;;0.40;0.40;;;;;;;;;;5006075;28;20263;-83
2024/01/28 08:19:47;;;;;;;0.50;0.50;;;;;;;;;;5007289;28;20184;-83
2024/01/28 08:22:13;;;;;;;0.40;0.40;;;;;;;;;;5005007;28;20698;-82
2024/01/28 08:24:39;;;;;;;0.50;0.50;;;;;;;;;;5013010;28;20642;-80
2024/01/28 08:27:05;;;;;;;0.30;0.30;;;;;;;;;;5016811;28;20203;-81
2024/01/28 08:29:31;;;;;;;0.40;0.40;;;;;;;;;;5014469;28;20177;-80
2024/01/28 08:31:57;;;;;;;0.40;0.40;;;;;;;;;;5016810;28;20259;-83
2024/01/28 08:34:23;;;;;;;0.30;0.30;;;;;;;;;;5000897;28;20973;-83
2024/01/28 08:36:50;;;;;;;0.40;0.40;;;;;;;;;;5009606;28;20201;-83
2024/01/28 08:39:16;;;;;;;0.40;0.40;;;;;;;;;;5001650;28;20197;-84
2024/01/28 08:41:42;;;;;;;0.50;0.50;;;;;;;;;;4999470;28;20184;-84
2024/01/28 08:44:09;;;;;;;0.50;0.50;;;;;;;;;;4998580;28;20649;-84
2024/01/28 08:46:41;;;;;;;0.40;0.40;;;;;;;;;;5001206;28;20244;-84
2024/01/28 08:49:07;;;;;;;0.30;0.30;;;;;;;;;;5008282;28;20181;-84
2024/01/28 08:51:33;;;;;;;0.40;0.40;;;;;;;;;;5007213;28;20556;-84
2024/01/28 08:54:02;;;;;;;0.40;0.40;;;;;;;;;;4999211;28;20205;-85
2024/01/28 08:56:28;;;;;;;0.40;0.40;;;;;;;;;;5011361;28;20232;-83
2024/01/28 08:58:54;;;;;;;0.30;0.30;;;;;;;;;;5014750;28;20211;-83
2024/01/28 09:01:21;;;;;;;0.30;0.30;;;;;;;;;;5001799;28;20677;-84
2024/01/28 09:03:47;;;;;;;0.40;0.40;;;;;;;;;;5001921;28;20260;-84
2024/01/28 09:06:13;;;;;;;0.30;0.30;;;;;;;;;;4998223;28;20224;-83
2024/01/28 09:08:39;;;;;;;0.40;0.40;;;;;;;;;;4996005;28;20177;-83
2024/01/28 09:11:05;;;;;;;0.40;0.40;;;;;;;;;;4997754;28;20181;-83
2024/01/28 09:13:31;;;;;;;0.40;0.40;;;;;;;;;;4997063;28;20205;-82
2024/01/28 09:15:57;;;;;;;0.37;0.37;;;;;;;;;;4996128;28;20189;-85
2024/01/28 09:18:23;;;;;;;0.30;0.30;;;;;;;;;;4996592;28;20243;-84
2024/01/28 09:20:49;;;;;;;0.40;0.40;;;;;;;;;;5015680;28;20240;-83
2024/01/28 09:23:15;;;;;;;0.30;0.30;;;;;;;;;;5013337;28;20176;-81
2024/01/28 09:25:41;;;;;;;0.30;0.30;;;;;;;;;;5014689;28;20226;-82
2024/01/28 09:28:07;;;;;;;0.30;0.30;;;;;;;;;;5012602;28;20577;-82
2024/01/28 09:30:33;;;;;;;0.30;0.30;;;;;;;;;;5015569;28;20176;-82
2024/01/28 09:32:59;;;;;;;0.30;0.30;;;;;;;;;;5014969;28;20184;-85
2024/01/28 09:35:25;;;;;;;0.37;0.37;;;;;;;;;;5015728;28;20542;-83
2024/01/28 09:37:52;;;;;;;0.40;0.40;;;;;;;;;;5016188;28;20208;-84
2024/01/28 09:40:18;;;;;;;0.30;0.30;;;;;;;;;;5025221;28;20235;-81
2024/01/28 09:43:04;;;;;;;0.40;0.40;;;;;;;;;;5020880;28;20189;-84
2024/01/28 09:45:30;;;;;;;0.30;0.30;;;;;;;;;;5008877;28;20654;-85
2024/01/28 09:47:57;;;;;;;0.30;0.30;;;;;;;;;;5010501;28;20201;-82
2024/01/28 09:50:23;;;;;;;0.40;0.40;;;;;;;;;;5010703;28;20203;-84
2024/01/28 09:52:49;;;;;;;0.30;0.30;;;;;;;;;;5005646;28;20196;-84
2024/01/28 09:55:15;;;;;;;0.30;0.30;;;;;;;;;;5006485;28;20220;-84
2024/01/28 09:57:41;;;;;;;0.30;0.30;;;;;;;;;;5023885;28;20280;-83
2024/01/28 10:00:08;;;;;;;0.40;0.40;;;;;;;;;;5017571;28;20178;-82
2024/01/28 10:02:37;;;;;;;0.30;0.30;;;;;;;;;;5020457;28;20243;-81
2024/01/28 10:05:04;;;;;;;0.30;0.30;;;;;;;;;;5007999;28;20706;-83
2024/01/28 10:07:40;;;;;;;0.30;0.30;;;;;;;;;;5024071;28;20184;-78
2024/01/28 10:10:06;;;;;;;0.30;0.30;;;;;;;;;;5035571;28;20164;-79
2024/01/28 10:12:33;;;;;;;0.30;0.30;;;;;;;;;;5036579;28;20194;-80
2024/01/28 10:14:59;;;;;;;0.37;0.37;;;;;;;;;;5028909;28;20208;-80
2024/01/28 10:17:25;;;;;;;0.30;0.30;;;;;;;;;;5024986;28;20746;-78
2024/01/28 10:19:51;;;;;;;0.30;0.30;;;;;;;;;;5027147;28;20204;-80
2024/01/28 10:22:17;;;;;;;0.37;0.37;;;;;;;;;;5021466;28;20173;-81
2024/01/28 10:24:43;;;;;;;0.30;0.30;;;;;;;;;;5018787;28;20184;-82
2024/01/28 10:27:09;;;;;;;0.40;0.40;;;;;;;;;;5018495;28;20740;-80
2024/01/28 10:29:36;;;;;;;0.40;0.40;;;;;;;;;;5019880;28;20192;-82
2024/01/28 10:32:02;;;;;;;0.30;0.30;;;;;;;;;;5024961;28;20206;-79
2024/01/28 10:34:28;;;;;;;0.37;0.37;;;;;;;;;;5027156;28;20247;-80
2024/01/28 10:36:55;;;;;;;0.33;0.33;;;;;;;;;;5028109;28;20196;-81
2024/01/28 10:39:22;;;;;;;0.40;0.40;;;;;;;;;;5029763;28;20553;-83
2024/01/28 10:41:56;;;;;;;0.50;0.50;;;;;;;;;;5029193;28;20557;-83
2024/01/28 10:44:22;;;;;;;0.60;0.60;;;;;;;;;;5020820;28;20475;-83
2024/01/28 10:46:50;;;;;;;0.50;0.50;;;;;;;;;;5015456;28;20872;-82
2024/01/28 10:49:19;;;;;;;0.30;0.30;;;;;;;;;;5013120;28;20176;-83
2024/01/28 10:51:46;;;;;;;0.30;0.30;;;;;;;;;;5020095;28;20228;-81
2024/01/28 10:54:12;;;;;;;0.40;0.40;;;;;;;;;;5019885;28;20231;-83
2024/01/28 10:56:39;;;;;;;0.40;0.40;;;;;;;;;;5019673;28;20193;-80
2024/01/28 10:59:05;;;;;;;0.40;0.40;;;;;;;;;;5018745;28;20606;-83
2024/01/28 11:01:31;;;;;;;0.50;0.50;;;;;;;;;;5018853;28;20183;-83
2024/01/28 11:03:58;;;;;;;0.30;0.30;;;;;;;;;;5017958;28;20212;-82
2024/01/28 11:06:28;;;;;;;0.40;0.40;;;;;;;;;;5015453;28;20279;-84
2024/01/28 11:08:55;;;;;;;0.37;0.37;;;;;;;;;;5004874;28;20236;-82
2024/01/28 11:11:21;;;;;;;0.23;0.23;;;;;;;;;;5008888;28;20181;-81
2024/01/28 11:13:47;;;;;;;0.30;0.30;;;;;;;;;;5015247;28;20242;-81
2024/01/28 11:16:15;;;;;;;0.20;0.20;;;;;;;;;;5018485;28;20686;-83
2024/01/28 11:18:41;;;;;;;0.27;0.27;;;;;;;;;;5019744;28;20181;-83
2024/01/28 11:21:13;;;;;;;0.30;0.30;;;;;;;;;;5018809;28;20173;-85
2024/01/28 11:23:46;;;;;;;0.30;0.30;;;;;;;;;;5018897;28;20195;-83
2024/01/28 11:26:15;;;;;;;0.50;0.50;;;;;;;;;;5019551;28;20200;-83
2024/01/28 11:28:52;;;;;;;0.40;0.40;;;;;;;;;;5019890;28;20259;-84
2024/01/28 11:31:32;;;;;;;0.37;0.37;;;;;;;;;;5019847;28;20172;-83
2024/01/28 11:34:17;;;;;;;0.40;0.40;;;;;;;;;;5020738;28;20199;-82
2024/01/28 11:36:51;;;;;;;0.33;0.33;;;;;;;;;;5020303;28;20192;-83
2024/01/28 11:39:25;;;;;;;0.30;0.30;;;;;;;;;;5021308;28;20176;-83
2024/01/28 11:41:53;;;;;;;0.30;0.30;;;;;;;;;;5023115;28;20180;-82
2024/01/28 11:44:19;;;;;;;0.30;0.30;;;;;;;;;;5025389;28;20685;-83
2024/01/28 11:46:46;;;;;;;0.43;0.43;;;;;;;;;;5024574;28;20204;-83
2024/01/28 11:49:12;;;;;;;0.40;0.40;;;;;;;;;;5029732;28;20168;-85
2024/01/28 11:51:38;;;;;;;0.33;0.33;;;;;;;;;;5036102;28;20188;-83
2024/01/28 11:54:05;;;;;;;0.40;0.40;;;;;;;;;;5024959;28;20205;-84
2024/01/28 11:56:31;;;;;;;0.30;0.30;;;;;;;;;;5013154;28;20193;-83
2024/01/28 11:58:57;;;;;;;0.30;0.30;;;;;;;;;;5020252;28;20256;-82
2024/01/28 12:01:24;;;;;;;0.40;0.40;;;;;;;;;;5028818;28;20173;-82
2024/01/28 12:03:51;;;;;;;0.50;0.50;;;;;;;;;;5023309;28;20544;-83
2024/01/28 12:06:17;;;;;;;0.40;0.40;;;;;;;;;;5014397;28;20651;-82
2024/01/28 12:08:43;;;;;;;0.50;0.50;;;;;;;;;;5002318;28;20224;-83
2024/01/28 12:11:13;;;;;;;0.50;0.50;;;;;;;;;;5008354;28;20201;-81
2024/01/28 12:13:40;;;;;;;0.50;0.50;;;;;;;;;;5003549;28;20706;-81
2024/01/28 12:16:06;;;;;;;0.40;0.40;;;;;;;;;;5017884;28;20547;-84
2024/01/28 12:18:33;;;;;;;0.50;0.50;;;;;;;;;;5003062;28;20233;-87
2024/01/28 12:21:00;;;;;;;0.60;0.60;;;;;;;;;;5000149;28;20185;-82
2024/01/28 12:23:26;;;;;;;0.50;0.50;;;;;;;;;;4999590;28;20177;-84
2024/01/28 12:25:52;;;;;;;0.57;0.57;;;;;;;;;;5018211;28;20180;-83
2024/01/28 12:28:18;;;;;;;0.60;0.60;;;;;;;;;;5006955;28;20189;-85
2024/01/28 12:30:44;;;;;;;0.40;0.40;;;;;;;;;;5001806;28;20254;-84
2024/01/28 12:33:10;;;;;;;0.40;0.40;;;;;;;;;;5008656;28;20607;-85
2024/01/28 12:35:36;;;;;;;0.30;0.30;;;;;;;;;;5003112;28;20184;-85
2024/01/28 12:38:02;;;;;;;0.40;0.40;;;;;;;;;;4999916;28;20200;-86
2024/01/28 12:40:28;;;;;;;0.40;0.40;;;;;;;;;;5003999;28;20495;-86
2024/01/28 12:42:54;;;;;;;0.40;0.40;;;;;;;;;;5002599;28;20259;-85
2024/01/28 12:45:21;;;;;;;0.30;0.30;;;;;;;;;;5007185;28;20188;-86
2024/01/28 12:47:47;;;;;;;0.40;0.40;;;;;;;;;;5010644;28;20290;-86
2024/01/28 12:50:13;;;;;;;0.30;0.30;;;;;;;;;;5004959;28;20181;-87
2024/01/28 12:52:39;;;;;;;0.30;0.30;;;;;;;;;;5000800;28;20185;-86
2024/01/28 12:55:05;;;;;;;0.40;0.40;;;;;;;;;;5001367;28;20707;-86
2024/01/28 12:57:31;;;;;;;0.37;0.37;;;;;;;;;;5002240;28;20224;-85
2024/01/28 12:59:58;;;;;;;0.40;0.40;;;;;;;;;;5007251;28;20247;-87
2024/01/28 13:02:24;;;;;;;0.43;0.43;;;;;;;;;;5005231;28;20184;-86
2024/01/28 13:04:50;;;;;;;0.40;0.40;;;;;;;;;;4995979;28;20687;-82
2024/01/28 13:07:16;;;;;;;0.30;0.30;;;;;;;;;;5004950;28;20205;-85
2024/01/28 13:09:42;;;;;;;0.30;0.30;;;;;;;;;;5006394;28;20615;-84
2024/01/28 13:12:08;;;;;;;0.30;0.30;;;;;;;;;;5003652;28;20188;-84
2024/01/28 13:14:34;;;;;;;0.30;0.30;;;;;;;;;;5012521;28;20704;-86
2024/01/28 13:17:00;;;;;;;0.40;0.40;;;;;;;;;;5015220;28;20212;-86
2024/01/28 13:19:26;;;;;;;0.40;0.40;;;;;;;;;;5021848;28;20561;-85
2024/01/28 13:21:52;;;;;;;0.40;0.40;;;;;;;;;;5000971;28;20185;-86
2024/01/28 13:24:18;;;;;;;0.40;0.40;;;;;;;;;;5003028;28;20315;-87
2024/01/28 13:26:44;;;;;;;0.50;0.50;;;;;;;;;;5017624;28;20204;-85
2024/01/28 13:29:10;;;;;;;0.40;0.40;;;;;;;;;;5014406;28;20602;-86
2024/01/28 13:31:37;;;;;;;0.30;0.30;;;;;;;;;;5010311;28;20189;-85
2024/01/28 13:34:02;;;;;;;0.47;0.47;;;;;;;;;;5013235;28;20220;-85
2024/01/28 13:36:35;;;;;;;0.40;0.40;;;;;;;;;;5018581;28;20193;-85
2024/01/28 13:39:03;;;;;;;0.23;0.23;;;;;;;;;;5031430;28;20191;-85
2024/01/28 13:41:29;;;;;;;0.50;0.50;;;;;;;;;;5024270;28;20865;-86
2024/01/28 13:43:55;;;;;;;0.40;0.40;;;;;;;;;;5017114;28;20181;-85
2024/01/28 13:46:21;;;;;;;0.30;0.30;;;;;;;;;;5009973;28;20262;-84
2024/01/28 13:48:47;;;;;;;0.30;0.30;;;;;;;;;;5003014;28;20227;-84
2024/01/28 13:51:13;;;;;;;0.40;0.40;;;;;;;;;;5009427;28;20173;-83
2024/01/28 13:53:39;;;;;;;0.50;0.50;;;;;;;;;;5022597;28;20224;-84
2024/01/28 13:56:06;;;;;;;0.30;0.30;;;;;;;;;;5022085;28;20200;-82
2024/01/28 13:58:32;;;;;;;0.47;0.47;;;;;;;;;;5006769;28;20181;-86
2024/01/28 14:00:58;;;;;;;0.30;0.30;;;;;;;;;;5003205;28;20216;-85
2024/01/28 14:03:24;;;;;;;0.40;0.40;;;;;;;;;;5018893;28;20178;-85
2024/01/28 14:05:50;;;;;;;0.40;0.40;;;;;;;;;;5018859;28;20180;-85
2024/01/28 14:08:16;;;;;;;0.40;0.40;;;;;;;;;;5006455;28;20188;-85
2024/01/28 14:10:42;;;;;;;0.50;0.50;;;;;;;;;;5018686;28;20191;-85
2024/01/28 14:13:08;;;;;;;0.40;0.40;;;;;;;;;;5041875;28;20219;-85
2024/01/28 14:15:37;;;;;;;0.50;0.50;;;;;;;;;;5021376;28;20208;-84
2024/01/28 14:18:03;;;;;;;0.40;0.40;;;;;;;;;;5019985;28;20283;-86
2024/01/28 14:20:29;;;;;;;0.40;0.40;;;;;;;;;;5018542;28;20211;-85
2024/01/28 14:22:56;;;;;;;0.50;0.50;;;;;;;;;;5019090;28;20539;-85
2024/01/28 14:25:21;;;;;;;0.30;0.30;;;;;;;;;;5017892;28;20350;-85
2024/01/28 14:27:47;;;;;;;0.40;0.40;;;;;;;;;;5018402;28;20196;-85
2024/01/28 14:30:14;;;;;;;0.30;0.30;;;;;;;;;;5017147;28;20214;-86
2024/01/28 14:32:40;;;;;;;0.40;0.40;;;;;;;;;;5017796;28;20266;-87
2024/01/28 14:35:06;;;;;;;0.30;0.30;;;;;;;;;;5017530;28;20204;-87
2024/01/28 14:37:32;;;;;;;0.47;0.47;;;;;;;;;;5018455;28;20200;-86
2024/01/28 14:39:58;;;;;;;0.30;0.30;;;;;;;;;;5018539;28;20180;-86